sensor_id;sensor_type;location;lat;lon;timestamp;P1;durP1;ratioP1;P2;durP2;ratioP2
56285;SDS011;42191;47.562;9.686;2023-05-17T00:00:00;38.78;;;36.28;;
56285;SDS011;42191;47.562;9.686;2023-05-17T00:02:27;39.90;;;36.92;;
56285;SDS011;42191;47.562;9.686;2023-05-17T00:04:53;37.40;;;34.95;;
56285;SDS011;42191;47.562;9.686;2023-05-17T00:07:19;36.47;;;34.10;;
56285;SDS011;42191;47.562;9.686;2023-05-17T00:09:46;37.33;;;34.92;;
56285;SDS011;42191;47.562;9.686;2023-05-17T00:12:12;38.55;;;35.67;;
56285;SDS011;42191;47.562;9.686;2023-05-17T00:14:38;37.15;;;34.85;;
56285;SDS011;42191;47.562;9.686;2023-05-17T00:17:04;36.47;;;34.08;;
56285;SDS011;42191;47.562;9.686;2023-05-17T00:19:30;36.17;;;33.92;;
56285;SDS011;42191;47.562;9.686;2023-05-17T00:21:56;37.97;;;35.42;;
56285;SDS011;42191;47.562;9.686;2023-05-17T00:24:22;36.78;;;34.38;;
56285;SDS011;42191;47.562;9.686;2023-05-17T00:26:49;37.10;;;34.63;;
56285;SDS011;42191;47.562;9.686;2023-05-17T00:29:15;38.53;;;36.03;;
56285;SDS011;42191;47.562;9.686;2023-05-17T00:31:41;38.13;;;35.58;;
56285;SDS011;42191;47.562;9.686;2023-05-17T00:34:07;39.33;;;36.63;;
56285;SDS011;42191;47.562;9.686;2023-05-17T00:36:33;37.17;;;34.72;;
56285;SDS011;42191;47.562;9.686;2023-05-17T00:38:59;38.35;;;35.95;;
56285;SDS011;42191;47.562;9.686;2023-05-17T00:41:25;39.03;;;36.42;;
56285;SDS011;42191;47.562;9.686;2023-05-17T00:43:51;38.75;;;36.30;;
56285;SDS011;42191;47.562;9.686;2023-05-17T00:46:18;36.88;;;34.38;;
56285;SDS011;42191;47.562;9.686;2023-05-17T00:48:44;35.95;;;33.72;;
56285;SDS011;42191;47.562;9.686;2023-05-17T00:51:10;38.03;;;35.53;;
56285;SDS011;42191;47.562;9.686;2023-05-17T00:53:38;36.47;;;33.97;;
56285;SDS011;42191;47.562;9.686;2023-05-17T00:56:04;37.47;;;35.08;;
56285;SDS011;42191;47.562;9.686;2023-05-17T00:58:31;37.58;;;35.17;;
56285;SDS011;42191;47.562;9.686;2023-05-17T01:00:58;38.83;;;36.33;;
56285;SDS011;42191;47.562;9.686;2023-05-17T01:03:25;37.35;;;35.05;;
56285;SDS011;42191;47.562;9.686;2023-05-17T01:05:51;36.15;;;33.58;;
56285;SDS011;42191;47.562;9.686;2023-05-17T01:08:19;35.13;;;32.92;;
56285;SDS011;42191;47.562;9.686;2023-05-17T01:13:26;38.60;;;36.05;;
56285;SDS011;42191;47.562;9.686;2023-05-17T01:16:09;36.85;;;34.55;;
56285;SDS011;42191;47.562;9.686;2023-05-17T01:18:40;37.55;;;35.15;;
56285;SDS011;42191;47.562;9.686;2023-05-17T01:24:25;34.70;;;32.55;;
56285;SDS011;42191;47.562;9.686;2023-05-17T01:27:03;38.53;;;35.83;;
56285;SDS011;42191;47.562;9.686;2023-05-17T01:29:31;38.35;;;35.92;;
56285;SDS011;42191;47.562;9.686;2023-05-17T01:31:59;38.35;;;35.85;;
56285;SDS011;42191;47.562;9.686;2023-05-17T01:34:27;35.05;;;32.95;;
56285;SDS011;42191;47.562;9.686;2023-05-17T01:36:54;38.25;;;35.63;;
56285;SDS011;42191;47.562;9.686;2023-05-17T01:39:21;37.35;;;35.05;;
56285;SDS011;42191;47.562;9.686;2023-05-17T01:41:54;37.00;;;34.55;;
56285;SDS011;42191;47.562;9.686;2023-05-17T01:47:15;38.78;;;36.15;;
56285;SDS011;42191;47.562;9.686;2023-05-17T01:50:17;37.90;;;35.50;;
56285;SDS011;42191;47.562;9.686;2023-05-17T01:52:54;37.05;;;34.75;;
56285;SDS011;42191;47.562;9.686;2023-05-17T01:58:09;39.83;;;37.17;;
56285;SDS011;42191;47.562;9.686;2023-05-17T02:00:37;37.83;;;35.30;;
56285;SDS011;42191;47.562;9.686;2023-05-17T02:03:05;36.17;;;33.95;;
56285;SDS011;42191;47.562;9.686;2023-05-17T02:05:31;37.58;;;35.28;;
56285;SDS011;42191;47.562;9.686;2023-05-17T02:07:57;38.17;;;35.75;;
56285;SDS011;42191;47.562;9.686;2023-05-17T02:10:23;38.65;;;36.05;;
56285;SDS011;42191;47.562;9.686;2023-05-17T02:12:50;37.20;;;34.90;;
56285;SDS011;42191;47.562;9.686;2023-05-17T02:15:16;37.17;;;34.78;;
56285;SDS011;42191;47.562;9.686;2023-05-17T02:17:42;38.38;;;35.97;;
56285;SDS011;42191;47.562;9.686;2023-05-17T02:20:08;38.55;;;36.15;;
56285;SDS011;42191;47.562;9.686;2023-05-17T02:22:35;37.15;;;34.92;;
56285;SDS011;42191;47.562;9.686;2023-05-17T02:25:01;38.38;;;35.95;;
56285;SDS011;42191;47.562;9.686;2023-05-17T02:27:28;36.60;;;34.40;;
56285;SDS011;42191;47.562;9.686;2023-05-17T02:29:54;37.35;;;34.80;;
56285;SDS011;42191;47.562;9.686;2023-05-17T02:32:20;37.58;;;35.03;;
56285;SDS011;42191;47.562;9.686;2023-05-17T02:34:47;35.72;;;33.50;;
56285;SDS011;42191;47.562;9.686;2023-05-17T02:37:13;36.58;;;34.00;;
56285;SDS011;42191;47.562;9.686;2023-05-17T02:39:39;38.40;;;35.78;;
56285;SDS011;42191;47.562;9.686;2023-05-17T02:42:05;37.63;;;35.22;;
56285;SDS011;42191;47.562;9.686;2023-05-17T02:44:31;37.85;;;35.42;;
56285;SDS011;42191;47.562;9.686;2023-05-17T02:46:57;36.85;;;34.50;;
56285;SDS011;42191;47.562;9.686;2023-05-17T02:49:23;36.50;;;34.10;;
56285;SDS011;42191;47.562;9.686;2023-05-17T02:51:49;37.40;;;35.17;;
56285;SDS011;42191;47.562;9.686;2023-05-17T02:54:16;37.80;;;35.40;;
56285;SDS011;42191;47.562;9.686;2023-05-17T02:56:42;38.22;;;35.90;;
56285;SDS011;42191;47.562;9.686;2023-05-17T02:59:08;35.95;;;33.67;;
56285;SDS011;42191;47.562;9.686;2023-05-17T03:01:34;37.55;;;35.22;;
56285;SDS011;42191;47.562;9.686;2023-05-17T03:04:00;37.65;;;35.05;;
56285;SDS011;42191;47.562;9.686;2023-05-17T03:06:26;38.05;;;35.58;;
56285;SDS011;42191;47.562;9.686;2023-05-17T03:08:52;38.35;;;36.05;;
56285;SDS011;42191;47.562;9.686;2023-05-17T03:11:19;36.42;;;34.13;;
56285;SDS011;42191;47.562;9.686;2023-05-17T03:13:45;37.47;;;35.08;;
56285;SDS011;42191;47.562;9.686;2023-05-17T03:16:15;34.75;;;32.65;;
56285;SDS011;42191;47.562;9.686;2023-05-17T03:18:42;38.90;;;36.50;;
56285;SDS011;42191;47.562;9.686;2023-05-17T03:21:08;37.33;;;34.83;;
56285;SDS011;42191;47.562;9.686;2023-05-17T03:23:34;37.10;;;34.90;;
56285;SDS011;42191;47.562;9.686;2023-05-17T03:26:00;39.40;;;36.90;;
56285;SDS011;42191;47.562;9.686;2023-05-17T03:28:26;37.95;;;35.45;;
56285;SDS011;42191;47.562;9.686;2023-05-17T03:30:52;37.45;;;35.05;;
56285;SDS011;42191;47.562;9.686;2023-05-17T03:33:19;37.80;;;35.50;;
56285;SDS011;42191;47.562;9.686;2023-05-17T03:35:45;36.42;;;34.22;;
56285;SDS011;42191;47.562;9.686;2023-05-17T03:38:11;37.90;;;35.50;;
56285;SDS011;42191;47.562;9.686;2023-05-17T03:40:38;38.65;;;36.13;;
56285;SDS011;42191;47.562;9.686;2023-05-17T03:43:05;38.03;;;35.53;;
56285;SDS011;42191;47.562;9.686;2023-05-17T03:45:31;39.30;;;36.88;;
56285;SDS011;42191;47.562;9.686;2023-05-17T03:47:58;37.15;;;34.63;;
56285;SDS011;42191;47.562;9.686;2023-05-17T03:50:24;36.40;;;34.20;;
56285;SDS011;42191;47.562;9.686;2023-05-17T03:52:50;37.83;;;35.42;;
56285;SDS011;42191;47.562;9.686;2023-05-17T03:55:16;38.40;;;35.80;;
56285;SDS011;42191;47.562;9.686;2023-05-17T03:57:42;37.30;;;34.85;;
56285;SDS011;42191;47.562;9.686;2023-05-17T04:00:09;38.17;;;35.78;;
56285;SDS011;42191;47.562;9.686;2023-05-17T04:02:36;38.83;;;36.30;;
56285;SDS011;42191;47.562;9.686;2023-05-17T04:05:03;38.75;;;36.25;;
56285;SDS011;42191;47.562;9.686;2023-05-17T04:07:29;36.85;;;34.55;;
56285;SDS011;42191;47.562;9.686;2023-05-17T04:09:55;36.22;;;33.50;;
56285;SDS011;42191;47.562;9.686;2023-05-17T04:12:23;37.58;;;35.22;;
56285;SDS011;42191;47.562;9.686;2023-05-17T04:14:49;36.30;;;34.10;;
56285;SDS011;42191;47.562;9.686;2023-05-17T04:17:15;37.17;;;34.75;;
56285;SDS011;42191;47.562;9.686;2023-05-17T04:19:41;37.83;;;35.42;;
56285;SDS011;42191;47.562;9.686;2023-05-17T04:22:08;38.20;;;35.80;;
56285;SDS011;42191;47.562;9.686;2023-05-17T04:24:34;38.47;;;36.15;;
56285;SDS011;42191;47.562;9.686;2023-05-17T04:27:00;36.97;;;34.63;;
56285;SDS011;42191;47.562;9.686;2023-05-17T04:29:29;36.28;;;34.03;;
56285;SDS011;42191;47.562;9.686;2023-05-17T04:31:55;35.75;;;33.25;;
56285;SDS011;42191;47.562;9.686;2023-05-17T04:34:21;37.38;;;35.08;;
56285;SDS011;42191;47.562;9.686;2023-05-17T04:36:49;36.40;;;34.22;;
56285;SDS011;42191;47.562;9.686;2023-05-17T04:39:15;38.13;;;35.70;;
56285;SDS011;42191;47.562;9.686;2023-05-17T04:41:42;38.53;;;36.17;;
56285;SDS011;42191;47.562;9.686;2023-05-17T04:44:08;36.38;;;34.08;;
56285;SDS011;42191;47.562;9.686;2023-05-17T04:46:34;36.95;;;34.65;;
56285;SDS011;42191;47.562;9.686;2023-05-17T04:49:01;38.17;;;35.67;;
56285;SDS011;42191;47.562;9.686;2023-05-17T04:51:27;37.85;;;35.45;;
56285;SDS011;42191;47.562;9.686;2023-05-17T04:53:54;36.72;;;34.50;;
56285;SDS011;42191;47.562;9.686;2023-05-17T04:56:20;37.38;;;34.28;;
56285;SDS011;42191;47.562;9.686;2023-05-17T04:58:47;36.92;;;34.53;;
56285;SDS011;42191;47.562;9.686;2023-05-17T05:01:13;37.47;;;35.17;;
56285;SDS011;42191;47.562;9.686;2023-05-17T05:03:39;38.10;;;35.47;;
56285;SDS011;42191;47.562;9.686;2023-05-17T05:06:06;37.38;;;35.05;;
56285;SDS011;42191;47.562;9.686;2023-05-17T05:08:32;36.17;;;33.97;;
56285;SDS011;42191;47.562;9.686;2023-05-17T05:10:58;38.53;;;36.10;;
56285;SDS011;42191;47.562;9.686;2023-05-17T05:13:24;38.40;;;36.00;;
56285;SDS011;42191;47.562;9.686;2023-05-17T05:15:50;38.65;;;36.33;;
56285;SDS011;42191;47.562;9.686;2023-05-17T05:18:16;37.33;;;35.03;;
56285;SDS011;42191;47.562;9.686;2023-05-17T05:20:43;37.78;;;35.47;;
56285;SDS011;42191;47.562;9.686;2023-05-17T05:23:10;37.47;;;35.20;;
56285;SDS011;42191;47.562;9.686;2023-05-17T05:25:36;37.08;;;34.78;;
56285;SDS011;42191;47.562;9.686;2023-05-17T05:28:02;38.00;;;35.60;;
56285;SDS011;42191;47.562;9.686;2023-05-17T05:30:28;36.00;;;33.60;;
56285;SDS011;42191;47.562;9.686;2023-05-17T05:32:55;36.42;;;33.97;;
56285;SDS011;42191;47.562;9.686;2023-05-17T05:35:22;38.17;;;35.47;;
56285;SDS011;42191;47.562;9.686;2023-05-17T05:37:57;37.83;;;35.35;;
56285;SDS011;42191;47.562;9.686;2023-05-17T05:40:23;38.42;;;35.92;;
56285;SDS011;42191;47.562;9.686;2023-05-17T05:42:50;38.72;;;36.17;;
56285;SDS011;42191;47.562;9.686;2023-05-17T05:45:16;38.13;;;35.70;;
56285;SDS011;42191;47.562;9.686;2023-05-17T05:47:42;39.13;;;36.72;;
56285;SDS011;42191;47.562;9.686;2023-05-17T05:50:09;38.75;;;36.25;;
56285;SDS011;42191;47.562;9.686;2023-05-17T05:52:35;37.38;;;35.13;;
56285;SDS011;42191;47.562;9.686;2023-05-17T05:55:02;37.60;;;35.20;;
56285;SDS011;42191;47.562;9.686;2023-05-17T05:57:28;37.08;;;34.88;;
56285;SDS011;42191;47.562;9.686;2023-05-17T05:59:54;37.40;;;35.10;;
56285;SDS011;42191;47.562;9.686;2023-05-17T06:02:20;38.30;;;35.97;;
56285;SDS011;42191;47.562;9.686;2023-05-17T06:04:46;35.78;;;33.58;;
56285;SDS011;42191;47.562;9.686;2023-05-17T06:07:13;37.30;;;34.92;;
56285;SDS011;42191;47.562;9.686;2023-05-17T06:09:39;37.80;;;35.45;;
56285;SDS011;42191;47.562;9.686;2023-05-17T06:12:06;36.92;;;34.72;;
56285;SDS011;42191;47.562;9.686;2023-05-17T06:14:32;37.08;;;34.85;;
56285;SDS011;42191;47.562;9.686;2023-05-17T06:16:58;37.47;;;35.15;;
56285;SDS011;42191;47.562;9.686;2023-05-17T06:19:24;38.55;;;36.25;;
56285;SDS011;42191;47.562;9.686;2023-05-17T06:21:50;37.38;;;35.08;;
56285;SDS011;42191;47.562;9.686;2023-05-17T06:24:16;35.22;;;33.13;;
56285;SDS011;42191;47.562;9.686;2023-05-17T06:26:42;37.05;;;34.70;;
56285;SDS011;42191;47.562;9.686;2023-05-17T06:29:09;35.42;;;33.22;;
56285;SDS011;42191;47.562;9.686;2023-05-17T06:31:35;37.85;;;35.53;;
56285;SDS011;42191;47.562;9.686;2023-05-17T06:34:01;37.33;;;34.88;;
56285;SDS011;42191;47.562;9.686;2023-05-17T06:36:27;37.60;;;35.30;;
56285;SDS011;42191;47.562;9.686;2023-05-17T06:38:53;36.75;;;34.17;;
56285;SDS011;42191;47.562;9.686;2023-05-17T06:41:20;36.03;;;33.83;;
56285;SDS011;42191;47.562;9.686;2023-05-17T06:43:46;38.78;;;36.17;;
56285;SDS011;42191;47.562;9.686;2023-05-17T06:46:12;37.80;;;35.50;;
56285;SDS011;42191;47.562;9.686;2023-05-17T06:48:38;38.45;;;35.90;;
56285;SDS011;42191;47.562;9.686;2023-05-17T06:51:04;34.97;;;32.85;;
56285;SDS011;42191;47.562;9.686;2023-05-17T06:53:30;38.45;;;35.65;;
56285;SDS011;42191;47.562;9.686;2023-05-17T06:55:56;38.10;;;35.55;;
56285;SDS011;42191;47.562;9.686;2023-05-17T06:58:22;35.53;;;33.13;;
56285;SDS011;42191;47.562;9.686;2023-05-17T07:00:48;37.47;;;35.05;;
56285;SDS011;42191;47.562;9.686;2023-05-17T07:03:14;34.58;;;32.33;;
56285;SDS011;42191;47.562;9.686;2023-05-17T07:05:40;34.92;;;32.83;;
56285;SDS011;42191;47.562;9.686;2023-05-17T07:08:06;35.30;;;33.08;;
56285;SDS011;42191;47.562;9.686;2023-05-17T07:10:33;35.92;;;33.53;;
56285;SDS011;42191;47.562;9.686;2023-05-17T07:12:59;36.75;;;34.55;;
56285;SDS011;42191;47.562;9.686;2023-05-17T07:15:25;36.20;;;34.05;;
56285;SDS011;42191;47.562;9.686;2023-05-17T07:17:51;34.80;;;32.60;;
56285;SDS011;42191;47.562;9.686;2023-05-17T07:20:17;36.20;;;33.83;;
56285;SDS011;42191;47.562;9.686;2023-05-17T07:22:43;34.92;;;32.63;;
56285;SDS011;42191;47.562;9.686;2023-05-17T07:25:09;36.83;;;34.35;;
56285;SDS011;42191;47.562;9.686;2023-05-17T07:27:35;37.10;;;34.80;;
56285;SDS011;42191;47.562;9.686;2023-05-17T07:30:01;34.88;;;32.55;;
56285;SDS011;42191;47.562;9.686;2023-05-17T07:32:28;36.35;;;33.97;;
56285;SDS011;42191;47.562;9.686;2023-05-17T07:34:54;34.88;;;32.45;;
56285;SDS011;42191;47.562;9.686;2023-05-17T07:37:21;35.53;;;33.33;;
56285;SDS011;42191;47.562;9.686;2023-05-17T07:39:48;34.53;;;32.33;;
56285;SDS011;42191;47.562;9.686;2023-05-17T07:42:14;34.53;;;32.35;;
56285;SDS011;42191;47.562;9.686;2023-05-17T07:44:40;33.85;;;31.77;;
56285;SDS011;42191;47.562;9.686;2023-05-17T07:47:06;34.70;;;32.35;;
56285;SDS011;42191;47.562;9.686;2023-05-17T07:49:32;37.00;;;34.65;;
56285;SDS011;42191;47.562;9.686;2023-05-17T07:51:58;34.53;;;32.28;;
56285;SDS011;42191;47.562;9.686;2023-05-17T07:54:26;35.72;;;33.53;;
56285;SDS011;42191;47.562;9.686;2023-05-17T07:56:52;35.80;;;33.60;;
56285;SDS011;42191;47.562;9.686;2023-05-17T07:59:22;35.30;;;33.08;;
56285;SDS011;42191;47.562;9.686;2023-05-17T08:01:48;36.03;;;33.53;;
56285;SDS011;42191;47.562;9.686;2023-05-17T08:04:15;36.35;;;34.05;;
56285;SDS011;42191;47.562;9.686;2023-05-17T08:06:41;35.40;;;33.10;;
56285;SDS011;42191;47.562;9.686;2023-05-17T08:09:10;34.92;;;32.72;;
56285;SDS011;42191;47.562;9.686;2023-05-17T08:11:37;35.85;;;33.53;;
56285;SDS011;42191;47.562;9.686;2023-05-17T08:14:09;34.65;;;32.55;;
56285;SDS011;42191;47.562;9.686;2023-05-17T08:16:40;33.83;;;31.70;;
56285;SDS011;42191;47.562;9.686;2023-05-17T08:19:09;34.10;;;31.92;;
56285;SDS011;42191;47.562;9.686;2023-05-17T08:21:37;34.50;;;32.28;;
56285;SDS011;42191;47.562;9.686;2023-05-17T08:24:04;35.65;;;33.45;;
56285;SDS011;42191;47.562;9.686;2023-05-17T08:26:30;35.55;;;33.25;;
56285;SDS011;42191;47.562;9.686;2023-05-17T08:28:57;33.67;;;31.58;;
56285;SDS011;42191;47.562;9.686;2023-05-17T08:31:23;35.15;;;32.92;;
56285;SDS011;42191;47.562;9.686;2023-05-17T08:33:49;34.13;;;31.92;;
56285;SDS011;42191;47.562;9.686;2023-05-17T08:36:15;32.38;;;30.17;;
56285;SDS011;42191;47.562;9.686;2023-05-17T08:38:41;33.90;;;31.80;;
56285;SDS011;42191;47.562;9.686;2023-05-17T08:41:08;34.05;;;31.88;;
56285;SDS011;42191;47.562;9.686;2023-05-17T08:43:34;34.22;;;32.20;;
56285;SDS011;42191;47.562;9.686;2023-05-17T08:46:01;34.20;;;32.10;;
56285;SDS011;42191;47.562;9.686;2023-05-17T08:48:28;33.85;;;31.60;;
56285;SDS011;42191;47.562;9.686;2023-05-17T08:50:55;35.03;;;32.83;;
56285;SDS011;42191;47.562;9.686;2023-05-17T08:53:22;33.63;;;31.33;;
56285;SDS011;42191;47.562;9.686;2023-05-17T08:55:49;34.30;;;32.20;;
56285;SDS011;42191;47.562;9.686;2023-05-17T08:58:21;35.17;;;32.90;;
56285;SDS011;42191;47.562;9.686;2023-05-17T09:00:51;32.83;;;30.80;;
56285;SDS011;42191;47.562;9.686;2023-05-17T09:03:19;33.38;;;31.38;;
56285;SDS011;42191;47.562;9.686;2023-05-17T09:05:49;34.67;;;32.38;;
56285;SDS011;42191;47.562;9.686;2023-05-17T09:08:21;31.95;;;29.67;;
56285;SDS011;42191;47.562;9.686;2023-05-17T09:10:47;33.33;;;30.92;;
56285;SDS011;42191;47.562;9.686;2023-05-17T09:13:14;33.88;;;31.67;;
56285;SDS011;42191;47.562;9.686;2023-05-17T09:15:44;32.15;;;30.25;;
56285;SDS011;42191;47.562;9.686;2023-05-17T09:18:13;34.63;;;32.42;;
56285;SDS011;42191;47.562;9.686;2023-05-17T09:20:40;34.13;;;32.03;;
56285;SDS011;42191;47.562;9.686;2023-05-17T09:23:07;33.30;;;31.30;;
56285;SDS011;42191;47.562;9.686;2023-05-17T09:25:38;33.20;;;31.10;;
56285;SDS011;42191;47.562;9.686;2023-05-17T09:28:12;32.20;;;30.10;;
56285;SDS011;42191;47.562;9.686;2023-05-17T09:30:38;30.50;;;28.60;;
56285;SDS011;42191;47.562;9.686;2023-05-17T09:33:06;32.75;;;30.67;;
56285;SDS011;42191;47.562;9.686;2023-05-17T09:35:34;33.70;;;31.30;;
56285;SDS011;42191;47.562;9.686;2023-05-17T09:38:04;34.38;;;32.20;;
56285;SDS011;42191;47.562;9.686;2023-05-17T09:40:42;32.47;;;30.48;;
56285;SDS011;42191;47.562;9.686;2023-05-17T09:43:10;32.03;;;29.92;;
56285;SDS011;42191;47.562;9.686;2023-05-17T09:45:36;32.15;;;30.23;;
56285;SDS011;42191;47.562;9.686;2023-05-17T09:48:16;32.50;;;30.30;;
56285;SDS011;42191;47.562;9.686;2023-05-17T09:50:43;32.65;;;30.65;;
56285;SDS011;42191;47.562;9.686;2023-05-17T09:55:48;33.42;;;31.17;;
56285;SDS011;42191;47.562;9.686;2023-05-17T09:58:16;33.13;;;31.02;;
56285;SDS011;42191;47.562;9.686;2023-05-17T10:00:42;33.03;;;30.85;;
56285;SDS011;42191;47.562;9.686;2023-05-17T10:03:11;32.58;;;30.58;;
56285;SDS011;42191;47.562;9.686;2023-05-17T10:05:38;34.85;;;32.65;;
56285;SDS011;42191;47.562;9.686;2023-05-17T10:08:09;30.23;;;28.38;;
56285;SDS011;42191;47.562;9.686;2023-05-17T10:10:37;32.28;;;30.30;;
56285;SDS011;42191;47.562;9.686;2023-05-17T10:13:05;32.75;;;30.65;;
56285;SDS011;42191;47.562;9.686;2023-05-17T10:15:35;33.17;;;31.02;;
56285;SDS011;42191;47.562;9.686;2023-05-17T10:18:02;34.10;;;31.77;;
56285;SDS011;42191;47.562;9.686;2023-05-17T10:20:30;33.00;;;30.95;;
56285;SDS011;42191;47.562;9.686;2023-05-17T10:22:56;32.70;;;30.60;;
56285;SDS011;42191;47.562;9.686;2023-05-17T10:25:24;32.35;;;30.35;;
56285;SDS011;42191;47.562;9.686;2023-05-17T10:27:51;32.90;;;30.85;;
56285;SDS011;42191;47.562;9.686;2023-05-17T10:30:18;31.60;;;29.60;;
56285;SDS011;42191;47.562;9.686;2023-05-17T10:32:45;33.08;;;30.75;;
56285;SDS011;42191;47.562;9.686;2023-05-17T10:35:12;31.48;;;29.48;;
56285;SDS011;42191;47.562;9.686;2023-05-17T10:37:39;32.53;;;30.42;;
56285;SDS011;42191;47.562;9.686;2023-05-17T10:40:06;32.13;;;30.13;;
56285;SDS011;42191;47.562;9.686;2023-05-17T10:42:38;33.42;;;31.20;;
56285;SDS011;42191;47.562;9.686;2023-05-17T10:45:11;32.13;;;30.15;;
56285;SDS011;42191;47.562;9.686;2023-05-17T10:47:38;32.22;;;30.05;;
56285;SDS011;42191;47.562;9.686;2023-05-17T10:50:10;31.13;;;29.20;;
56285;SDS011;42191;47.562;9.686;2023-05-17T10:52:37;31.73;;;29.83;;
56285;SDS011;42191;47.562;9.686;2023-05-17T10:55:09;31.40;;;29.40;;
56285;SDS011;42191;47.562;9.686;2023-05-17T10:57:36;31.95;;;29.95;;
56285;SDS011;42191;47.562;9.686;2023-05-17T11:00:03;31.77;;;29.85;;
56285;SDS011;42191;47.562;9.686;2023-05-17T11:02:39;31.95;;;29.85;;
56285;SDS011;42191;47.562;9.686;2023-05-17T11:05:06;31.25;;;29.27;;
56285;SDS011;42191;47.562;9.686;2023-05-17T11:07:46;31.38;;;29.42;;
56285;SDS011;42191;47.562;9.686;2023-05-17T11:10:13;32.55;;;30.45;;
56285;SDS011;42191;47.562;9.686;2023-05-17T11:12:41;33.15;;;31.05;;
56285;SDS011;42191;47.562;9.686;2023-05-17T11:15:11;31.83;;;29.65;;
56285;SDS011;42191;47.562;9.686;2023-05-17T11:25:23;33.10;;;30.83;;
56285;SDS011;42191;47.562;9.686;2023-05-17T11:27:51;31.83;;;29.83;;
56285;SDS011;42191;47.562;9.686;2023-05-17T11:35:21;32.70;;;30.63;;
56285;SDS011;42191;47.562;9.686;2023-05-17T11:37:50;32.75;;;30.75;;
56285;SDS011;42191;47.562;9.686;2023-05-17T11:40:24;31.85;;;29.80;;
56285;SDS011;42191;47.562;9.686;2023-05-17T11:43:10;31.77;;;29.70;;
56285;SDS011;42191;47.562;9.686;2023-05-17T11:45:45;31.73;;;29.73;;
56285;SDS011;42191;47.562;9.686;2023-05-17T11:48:19;31.92;;;29.92;;
56285;SDS011;42191;47.562;9.686;2023-05-17T11:50:46;31.80;;;29.63;;
56285;SDS011;42191;47.562;9.686;2023-05-17T11:53:14;32.13;;;30.10;;
56285;SDS011;42191;47.562;9.686;2023-05-17T11:55:42;30.73;;;28.73;;
56285;SDS011;42191;47.562;9.686;2023-05-17T11:58:11;32.03;;;30.02;;
56285;SDS011;42191;47.562;9.686;2023-05-17T12:00:42;31.92;;;29.95;;
56285;SDS011;42191;47.562;9.686;2023-05-17T12:03:27;31.20;;;29.20;;
56285;SDS011;42191;47.562;9.686;2023-05-17T12:06:02;32.25;;;30.25;;
56285;SDS011;42191;47.562;9.686;2023-05-17T12:08:31;32.90;;;30.70;;
56285;SDS011;42191;47.562;9.686;2023-05-17T12:10:58;31.58;;;29.55;;
56285;SDS011;42191;47.562;9.686;2023-05-17T12:13:29;30.95;;;29.05;;
56285;SDS011;42191;47.562;9.686;2023-05-17T12:15:58;32.22;;;30.05;;
56285;SDS011;42191;47.562;9.686;2023-05-17T12:18:33;32.03;;;29.95;;
56285;SDS011;42191;47.562;9.686;2023-05-17T12:21:04;33.55;;;31.45;;
56285;SDS011;42191;47.562;9.686;2023-05-17T12:23:31;32.25;;;30.25;;
56285;SDS011;42191;47.562;9.686;2023-05-17T12:26:02;32.75;;;30.55;;
56285;SDS011;42191;47.562;9.686;2023-05-17T12:28:30;30.52;;;28.38;;
56285;SDS011;42191;47.562;9.686;2023-05-17T12:30:56;32.60;;;30.40;;
56285;SDS011;42191;47.562;9.686;2023-05-17T12:33:26;32.30;;;30.27;;
56285;SDS011;42191;47.562;9.686;2023-05-17T12:35:57;33.40;;;31.20;;
56285;SDS011;42191;47.562;9.686;2023-05-17T12:38:24;30.83;;;28.88;;
56285;SDS011;42191;47.562;9.686;2023-05-17T12:40:53;31.75;;;29.50;;
56285;SDS011;42191;47.562;9.686;2023-05-17T12:43:22;30.45;;;28.45;;
56285;SDS011;42191;47.562;9.686;2023-05-17T12:45:48;31.70;;;29.73;;
56285;SDS011;42191;47.562;9.686;2023-05-17T12:48:15;31.08;;;29.23;;
56285;SDS011;42191;47.562;9.686;2023-05-17T12:50:41;31.05;;;29.05;;
56285;SDS011;42191;47.562;9.686;2023-05-17T12:53:11;31.90;;;29.95;;
56285;SDS011;42191;47.562;9.686;2023-05-17T12:55:37;31.40;;;29.33;;
56285;SDS011;42191;47.562;9.686;2023-05-17T12:58:03;31.85;;;29.85;;
56285;SDS011;42191;47.562;9.686;2023-05-17T13:00:29;32.80;;;30.80;;
56285;SDS011;42191;47.562;9.686;2023-05-17T13:02:55;32.45;;;30.40;;
56285;SDS011;42191;47.562;9.686;2023-05-17T13:05:21;32.85;;;30.85;;
56285;SDS011;42191;47.562;9.686;2023-05-17T13:07:48;31.33;;;29.38;;
56285;SDS011;42191;47.562;9.686;2023-05-17T13:10:24;33.20;;;31.20;;
56285;SDS011;42191;47.562;9.686;2023-05-17T13:12:58;32.28;;;30.25;;
56285;SDS011;42191;47.562;9.686;2023-05-17T13:15:28;30.92;;;28.98;;
56285;SDS011;42191;47.562;9.686;2023-05-17T13:17:55;33.20;;;31.10;;
56285;SDS011;42191;47.562;9.686;2023-05-17T13:20:21;31.95;;;30.05;;
56285;SDS011;42191;47.562;9.686;2023-05-17T13:22:48;32.33;;;30.30;;
56285;SDS011;42191;47.562;9.686;2023-05-17T13:25:14;32.25;;;30.15;;
56285;SDS011;42191;47.562;9.686;2023-05-17T13:27:41;32.08;;;29.85;;
56285;SDS011;42191;47.562;9.686;2023-05-17T13:30:11;29.45;;;27.65;;
56285;SDS011;42191;47.562;9.686;2023-05-17T13:32:37;29.83;;;27.90;;
56285;SDS011;42191;47.562;9.686;2023-05-17T13:35:04;30.88;;;28.80;;
56285;SDS011;42191;47.562;9.686;2023-05-17T13:37:30;31.63;;;29.55;;
56285;SDS011;42191;47.562;9.686;2023-05-17T13:39:56;31.25;;;29.25;;
56285;SDS011;42191;47.562;9.686;2023-05-17T13:42:22;31.02;;;29.02;;
56285;SDS011;42191;47.562;9.686;2023-05-17T13:44:49;31.92;;;29.98;;
56285;SDS011;42191;47.562;9.686;2023-05-17T13:47:15;31.83;;;29.77;;
56285;SDS011;42191;47.562;9.686;2023-05-17T13:49:41;32.72;;;30.67;;
56285;SDS011;42191;47.562;9.686;2023-05-17T13:52:07;33.08;;;30.92;;
56285;SDS011;42191;47.562;9.686;2023-05-17T13:54:34;32.85;;;30.75;;
56285;SDS011;42191;47.562;9.686;2023-05-17T13:57:00;33.85;;;31.73;;
56285;SDS011;42191;47.562;9.686;2023-05-17T13:59:26;33.95;;;31.65;;
56285;SDS011;42191;47.562;9.686;2023-05-17T14:01:52;33.75;;;31.55;;
56285;SDS011;42191;47.562;9.686;2023-05-17T14:04:18;32.65;;;30.58;;
56285;SDS011;42191;47.562;9.686;2023-05-17T14:06:45;33.08;;;31.02;;
56285;SDS011;42191;47.562;9.686;2023-05-17T14:09:11;33.83;;;31.55;;
56285;SDS011;42191;47.562;9.686;2023-05-17T14:11:37;31.80;;;29.77;;
56285;SDS011;42191;47.562;9.686;2023-05-17T14:14:03;33.20;;;31.10;;
56285;SDS011;42191;47.562;9.686;2023-05-17T14:16:30;31.13;;;29.05;;
56285;SDS011;42191;47.562;9.686;2023-05-17T14:18:56;32.03;;;30.02;;
56285;SDS011;42191;47.562;9.686;2023-05-17T14:21:23;32.60;;;30.50;;
56285;SDS011;42191;47.562;9.686;2023-05-17T14:23:50;31.27;;;29.33;;
56285;SDS011;42191;47.562;9.686;2023-05-17T14:26:16;32.55;;;30.45;;
56285;SDS011;42191;47.562;9.686;2023-05-17T14:28:42;33.17;;;31.17;;
56285;SDS011;42191;47.562;9.686;2023-05-17T14:31:08;31.02;;;29.02;;
56285;SDS011;42191;47.562;9.686;2023-05-17T14:33:34;31.92;;;29.83;;
56285;SDS011;42191;47.562;9.686;2023-05-17T14:36:01;31.75;;;29.75;;
56285;SDS011;42191;47.562;9.686;2023-05-17T14:38:30;31.90;;;29.70;;
56285;SDS011;42191;47.562;9.686;2023-05-17T14:40:57;31.15;;;29.20;;
56285;SDS011;42191;47.562;9.686;2023-05-17T14:43:24;32.67;;;30.63;;
56285;SDS011;42191;47.562;9.686;2023-05-17T14:45:50;31.88;;;29.88;;
56285;SDS011;42191;47.562;9.686;2023-05-17T14:48:16;32.35;;;30.35;;